Time;durP1;ratioP1;P1;durP2;ratioP2;P2;SDS_P1;SDS_P2;PMS_P1;PMS_P2;Temp;Humidity;BMP_temperature;BMP_pressure;BME280_temperature;BME280_humidity;BME280_pressure;Samples;Min_cycle;Max_cycle;Signal;HPM_P1;HPM_P2
2022/06/11 00:00:45;;;;;;;;;;;20.70;41.00;;;;;;6184624;23;19920;-79
2022/06/11 00:03:12;;;;;;;;;;;20.70;40.90;;;;;;6184173;23;20308;-78
2022/06/11 00:05:39;;;;;;;;;;;20.70;41.00;;;;;;6186043;23;19979;-78
2022/06/11 00:08:07;;;;;;;;;;;20.70;41.00;;;;;;6185586;23;19947;-81
2022/06/11 00:10:33;;;;;;;;;;;20.60;41.10;;;;;;6184423;23;19927;-81
2022/06/11 00:13:00;;;;;;;;;;;20.60;40.70;;;;;;6184066;23;19975;-79
2022/06/11 00:15:27;;;;;;;;;;;20.60;41.20;;;;;;6184659;23;19924;-78
2022/06/11 00:17:56;;;;;;;;;;;20.70;40.70;;;;;;6184390;23;19932;-78
2022/06/11 00:20:23;;;;;;;;;;;20.70;40.50;;;;;;6185869;23;19920;-78
2022/06/11 00:22:51;;;;;;;;;;;20.70;40.60;;;;;;6186203;23;19924;-79
2022/06/11 00:25:18;;;;;;;;;;;20.70;40.50;;;;;;6186703;23;20257;-80
2022/06/11 00:27:47;;;;;;;;;;;20.70;40.40;;;;;;6186624;23;19971;-81
2022/06/11 00:30:15;;;;;;;;;;;20.70;40.60;;;;;;6186687;23;19971;-81
2022/06/11 00:32:42;;;;;;;;;;;20.60;40.50;;;;;;6186835;23;19921;-78
2022/06/11 00:35:09;;;;;;;;;;;20.60;40.60;;;;;;6186557;23;19920;-78
2022/06/11 00:37:36;;;;;;;;;;;20.60;40.70;;;;;;6188103;23;19920;-79
2022/06/11 00:40:04;;;;;;;;;;;20.60;40.30;;;;;;6186559;23;19924;-82
2022/06/11 00:42:33;;;;;;;;;;;20.60;40.20;;;;;;6186911;23;19920;-85
2022/06/11 00:45:22;;;;;;;;;;;20.60;40.40;;;;;;6186535;23;19928;-78
2022/06/11 00:48:12;;;;;;;;;;;20.60;40.00;;;;;;6186330;23;19924;-78
2022/06/11 00:50:44;;;;;;;;;;;20.60;40.00;;;;;;6185050;23;19920;-78
2022/06/11 00:53:13;;;;;;;;;;;20.60;40.20;;;;;;6186234;23;19920;-80
2022/06/11 00:55:42;;;;;;;;;;;20.60;39.70;;;;;;6186276;23;19928;-78
2022/06/11 00:58:14;;;;;;;;;;;20.70;39.40;;;;;;6186067;23;19927;-84
2022/06/11 01:00:43;;;;;;;;;;;20.70;39.30;;;;;;6186843;23;19921;-85
2022/06/11 01:03:12;;;;;;;;;;;20.70;39.20;;;;;;6186280;23;20269;-78
2022/06/11 01:05:42;;;;;;;;;;;20.80;39.50;;;;;;6185861;23;20679;-81
2022/06/11 01:08:09;;;;;;;;;;;20.70;39.70;;;;;;6187583;23;20230;-78
2022/06/11 01:10:42;;;;;;;;;;;20.70;39.40;;;;;;6185424;23;19958;-80
2022/06/11 01:13:11;;;;;;;;;;;20.70;39.30;;;;;;6185575;23;19924;-81
2022/06/11 01:15:44;;;;;;;;;;;20.70;39.40;;;;;;6186066;23;19944;-79
2022/06/11 01:18:30;;;;;;;;;;;20.60;39.60;;;;;;6186701;23;20411;-79
2022/06/11 01:21:20;;;;;;;;;;;20.60;39.60;;;;;;6186299;23;20175;-84
2022/06/11 01:23:53;;;;;;;;;;;20.60;39.70;;;;;;6176370;23;19967;-84
2022/06/11 01:26:39;;;;;;;;;;;20.60;39.40;;;;;;6186022;23;19932;-84
2022/06/11 01:29:26;;;;;;;;;;;20.60;39.70;;;;;;6187435;23;19925;-80
2022/06/11 01:31:56;;;;;;;;;;;20.60;39.70;;;;;;6165487;23;20265;-80
2022/06/11 01:34:29;;;;;;;;;;;20.50;39.90;;;;;;6186243;23;19920;-78
2022/06/11 01:37:01;;;;;;;;;;;20.50;39.40;;;;;;6185689;23;19920;-80
2022/06/11 01:39:32;;;;;;;;;;;20.50;39.50;;;;;;6185963;23;19920;-85
2022/06/11 01:42:22;;;;;;;;;;;20.50;39.00;;;;;;6186042;23;19920;-80
2022/06/11 01:45:00;;;;;;;;;;;20.60;39.10;;;;;;6171477;23;19920;-80
2022/06/11 01:47:27;;;;;;;;;;;20.60;39.10;;;;;;6185851;23;19924;-86
2022/06/11 01:49:54;;;;;;;;;;;20.60;39.10;;;;;;6185682;23;19920;-83
2022/06/11 01:52:21;;;;;;;;;;;20.60;38.90;;;;;;6186247;23;19971;-78
2022/06/11 01:54:57;;;;;;;;;;;20.60;39.10;;;;;;6186377;23;19942;-80
2022/06/11 01:57:24;;;;;;;;;;;20.60;38.90;;;;;;6187634;23;19955;-79
2022/06/11 01:59:54;;;;;;;;;;;20.50;39.00;;;;;;6185924;23;19928;-82
2022/06/11 02:02:39;;;;;;;;;;;20.50;38.90;;;;;;6186087;23;19944;-84
2022/06/11 02:05:05;;;;;;;;;;;20.50;38.90;;;;;;6185378;23;20003;-78
2022/06/11 02:07:51;;;;;;;;;;;20.50;39.00;;;;;;6186037;23;19920;-80
2022/06/11 02:10:40;;;;;;;;;;;20.50;39.50;;;;;;6186374;23;19920;-80
2022/06/11 02:13:14;;;;;;;;;;;20.50;39.10;;;;;;6186101;23;19920;-83
2022/06/11 02:15:51;;;;;;;;;;;20.40;38.90;;;;;;6187528;23;19991;-85
2022/06/11 02:18:19;;;;;;;;;;;20.40;39.20;;;;;;6185524;23;20341;-80
2022/06/11 02:20:45;;;;;;;;;;;20.40;39.30;;;;;;6187526;23;19924;-78
2022/06/11 02:23:22;;;;;;;;;;;20.30;38.90;;;;;;6185827;23;19920;-79
2022/06/11 02:25:53;;;;;;;;;;;20.30;39.30;;;;;;6185855;23;19920;-79
2022/06/11 02:28:22;;;;;;;;;;;20.30;39.30;;;;;;6185604;23;20376;-80
2022/06/11 02:30:50;;;;;;;;;;;20.30;39.00;;;;;;6185280;23;19924;-85
2022/06/11 02:33:18;;;;;;;;;;;20.30;39.40;;;;;;6185565;23;19943;-78
2022/06/11 02:35:54;;;;;;;;;;;20.30;39.50;;;;;;6185179;23;19920;-80
2022/06/11 02:38:22;;;;;;;;;;;20.20;38.90;;;;;;6185145;23;19935;-79
2022/06/11 02:41:03;;;;;;;;;;;20.30;39.00;;;;;;6187047;23;19920;-84
2022/06/11 02:43:30;;;;;;;;;;;20.30;39.10;;;;;;6185544;23;19990;-78
2022/06/11 02:45:57;;;;;;;;;;;20.30;39.00;;;;;;6184642;23;19927;-84
2022/06/11 02:48:25;;;;;;;;;;;20.20;39.40;;;;;;6186226;23;19928;-80
2022/06/11 02:50:51;;;;;;;;;;;20.20;39.10;;;;;;6184513;23;19948;-78
2022/06/11 02:53:18;;;;;;;;;;;20.20;39.40;;;;;;6185796;23;19920;-84
2022/06/11 02:55:45;;;;;;;;;;;20.20;39.40;;;;;;6185645;23;19924;-84
2022/06/11 02:58:12;;;;;;;;;;;20.10;39.30;;;;;;6185135;23;20238;-81
2022/06/11 03:00:41;;;;;;;;;;;20.10;39.70;;;;;;6186417;23;19970;-85
2022/06/11 03:03:08;;;;;;;;;;;20.10;39.70;;;;;;6185276;23;19924;-84
2022/06/11 03:05:37;;;;;;;;;;;20.00;39.60;;;;;;6184876;23;19920;-84
2022/06/11 03:08:04;;;;;;;;;;;20.00;39.60;;;;;;6185058;23;20345;-85
2022/06/11 03:10:31;;;;;;;;;;;20.00;39.70;;;;;;6185265;23;20337;-81
2022/06/11 03:12:58;;;;;;;;;;;20.00;39.70;;;;;;6185337;23;20345;-79
2022/06/11 03:15:26;;;;;;;;;;;20.00;39.60;;;;;;6186250;23;20020;-78
2022/06/11 03:17:53;;;;;;;;;;;20.00;39.50;;;;;;6185501;23;19921;-80
2022/06/11 03:20:21;;;;;;;;;;;20.00;39.30;;;;;;6186477;23;19924;-80
2022/06/11 03:22:49;;;;;;;;;;;20.10;39.50;;;;;;6185508;23;19920;-78
2022/06/11 03:25:16;;;;;;;;;;;20.10;39.50;;;;;;6187229;23;19921;-83
2022/06/11 03:27:44;;;;;;;;;;;20.00;39.60;;;;;;6185943;23;19987;-84
2022/06/11 03:30:12;;;;;;;;;;;20.00;39.20;;;;;;6184969;23;19975;-83
2022/06/11 03:32:38;;;;;;;;;;;20.00;39.40;;;;;;6184761;23;19921;-78
2022/06/11 03:35:06;;;;;;;;;;;20.00;39.20;;;;;;6184455;23;19951;-80
2022/06/11 03:37:32;;;;;;;;;;;20.00;39.70;;;;;;6184914;23;19928;-80
2022/06/11 03:39:59;;;;;;;;;;;19.90;39.40;;;;;;6184795;23;19971;-78
2022/06/11 03:42:26;;;;;;;;;;;19.90;39.80;;;;;;6185485;23;19927;-84
2022/06/11 03:44:53;;;;;;;;;;;19.90;39.60;;;;;;6184884;23;19971;-78
2022/06/11 03:47:20;;;;;;;;;;;19.90;40.00;;;;;;6184434;23;20334;-78
2022/06/11 03:49:46;;;;;;;;;;;19.90;39.70;;;;;;6185888;23;20396;-78
2022/06/11 03:52:13;;;;;;;;;;;19.90;39.90;;;;;;6184160;23;19924;-78
2022/06/11 03:54:40;;;;;;;;;;;19.80;40.00;;;;;;6188075;23;19947;-78
2022/06/11 03:57:07;;;;;;;;;;;19.80;40.70;;;;;;6185575;23;19920;-80
2022/06/11 03:59:34;;;;;;;;;;;19.70;40.40;;;;;;6192185;23;19920;-84
2022/06/11 04:02:01;;;;;;;;;;;19.70;40.40;;;;;;6186384;23;19920;-78
2022/06/11 04:04:28;;;;;;;;;;;19.70;40.60;;;;;;6184179;23;19967;-78
2022/06/11 04:06:57;;;;;;;;;;;19.60;40.70;;;;;;6188494;23;19920;-78
2022/06/11 04:09:26;;;;;;;;;;;19.60;40.80;;;;;;6184381;23;19970;-78
2022/06/11 04:11:53;;;;;;;;;;;19.60;41.30;;;;;;6184242;23;19920;-80
2022/06/11 04:14:20;;;;;;;;;;;19.50;41.20;;;;;;6188403;23;20000;-80
2022/06/11 04:16:54;;;;;;;;;;;19.50;41.40;;;;;;6185551;23;19920;-80
2022/06/11 04:19:24;;;;;;;;;;;19.40;41.80;;;;;;6188504;23;19987;-80
2022/06/11 04:21:51;;;;;;;;;;;19.40;41.40;;;;;;6185439;23;19920;-84
2022/06/11 04:24:18;;;;;;;;;;;19.40;41.80;;;;;;6185673;23;19921;-78
2022/06/11 04:26:46;;;;;;;;;;;19.40;41.50;;;;;;6185893;23;19928;-78
2022/06/11 04:29:16;;;;;;;;;;;19.40;41.70;;;;;;6185441;23;19924;-79
2022/06/11 04:31:43;;;;;;;;;;;19.40;41.60;;;;;;6158573;23;19921;-78
2022/06/11 04:34:11;;;;;;;;;;;19.50;41.20;;;;;;6101616;23;19925;-80
2022/06/11 04:36:38;;;;;;;;;;;19.50;41.40;;;;;;6125201;23;19945;-80
2022/06/11 04:39:06;;;;;;;;;;;19.50;41.60;;;;;;6125640;23;19968;-78
2022/06/11 04:41:33;;;;;;;;;;;19.50;41.70;;;;;;6125589;23;20302;-79
2022/06/11 04:44:00;;;;;;;;;;;19.50;41.90;;;;;;6102038;23;20298;-78
2022/06/11 04:46:27;;;;;;;;;;;19.60;41.70;;;;;;6124691;23;19921;-83
2022/06/11 04:48:54;;;;;;;;;;;19.60;41.80;;;;;;6124724;23;19985;-78
2022/06/11 04:51:22;;;;;;;;;;;19.60;41.50;;;;;;6126744;23;19925;-84
2022/06/11 04:53:49;;;;;;;;;;;19.70;41.20;;;;;;6126635;23;19924;-78
2022/06/11 04:56:18;;;;;;;;;;;19.70;41.30;;;;;;6128273;23;19925;-78
2022/06/11 04:58:46;;;;;;;;;;;19.70;41.80;;;;;;6125541;23;20298;-83
2022/06/11 05:01:12;;;;;;;;;;;19.80;41.20;;;;;;6126102;23;19921;-78
2022/06/11 05:03:39;;;;;;;;;;;19.80;41.50;;;;;;6125382;23;19968;-78
2022/06/11 05:06:07;;;;;;;;;;;19.80;42.00;;;;;;6127231;23;19952;-78
2022/06/11 05:08:34;;;;;;;;;;;19.80;42.00;;;;;;6126680;23;20302;-84
2022/06/11 05:11:01;;;;;;;;;;;19.80;41.90;;;;;;6127286;23;19947;-79
2022/06/11 05:13:28;;;;;;;;;;;19.80;42.10;;;;;;6127338;23;19924;-78
2022/06/11 05:15:57;;;;;;;;;;;19.80;41.80;;;;;;6152313;23;19920;-84
2022/06/11 05:18:25;;;;;;;;;;;19.90;41.90;;;;;;6185278;23;19925;-80
2022/06/11 05:20:55;;;;;;;;;;;19.90;41.80;;;;;;6161675;23;19924;-79
2022/06/11 05:23:22;;;;;;;;;;;20.00;42.00;;;;;;6184938;23;20261;-77
2022/06/11 05:25:49;;;;;;;;;;;20.00;42.40;;;;;;6185413;23;19947;-82
2022/06/11 05:28:18;;;;;;;;;;;20.00;42.50;;;;;;6185071;23;19921;-78
2022/06/11 05:30:45;;;;;;;;;;;20.00;41.90;;;;;;6185653;23;19975;-78
2022/06/11 05:33:12;;;;;;;;;;;20.10;42.50;;;;;;6185383;23;20337;-80
2022/06/11 05:35:39;;;;;;;;;;;20.10;42.20;;;;;;6185782;23;19967;-80
2022/06/11 05:38:09;;;;;;;;;;;20.10;42.80;;;;;;6186145;23;19921;-78
2022/06/11 05:40:38;;;;;;;;;;;20.10;42.20;;;;;;6186626;23;20353;-84
2022/06/11 05:43:05;;;;;;;;;;;20.10;42.20;;;;;;6185895;23;19975;-78
2022/06/11 05:45:36;;;;;;;;;;;20.20;42.20;;;;;;6185172;23;20406;-78
2022/06/11 05:48:05;;;;;;;;;;;20.20;42.20;;;;;;6130690;23;19931;-79
2022/06/11 05:50:34;;;;;;;;;;;20.30;42.10;;;;;;6124291;23;19925;-77
2022/06/11 05:53:02;;;;;;;;;;;20.40;41.80;;;;;;6177711;23;19921;-78
2022/06/11 05:55:33;;;;;;;;;;;20.40;41.30;;;;;;6185322;23;19921;-82
2022/06/11 05:58:01;;;;;;;;;;;20.50;41.00;;;;;;6186057;23;20319;-79
2022/06/11 06:00:28;;;;;;;;;;;20.60;41.20;;;;;;6185668;23;20340;-78
2022/06/11 06:02:55;;;;;;;;;;;20.70;40.40;;;;;;6185990;23;20344;-78
2022/06/11 06:05:24;;;;;;;;;;;20.70;41.20;;;;;;6183756;23;19924;-83
2022/06/11 06:07:51;;;;;;;;;;;20.80;40.70;;;;;;6158472;23;19928;-83
2022/06/11 06:10:18;;;;;;;;;;;20.80;40.90;;;;;;6126880;23;19971;-77
2022/06/11 06:12:45;;;;;;;;;;;20.90;41.20;;;;;;6127168;23;19953;-81
2022/06/11 06:15:14;;;;;;;;;;;20.90;41.20;;;;;;6125249;23;19921;-78
2022/06/11 06:17:41;;;;;;;;;;;21.00;40.60;;;;;;6144765;23;19924;-83
2022/06/11 06:20:10;;;;;;;;;;;21.00;41.30;;;;;;6185512;23;20245;-77
2022/06/11 06:22:37;;;;;;;;;;;21.10;40.30;;;;;;6170215;23;20334;-77
2022/06/11 06:25:04;;;;;;;;;;;21.10;41.00;;;;;;6127218;23;19921;-79
2022/06/11 06:27:31;;;;;;;;;;;21.20;41.00;;;;;;6125301;23;19925;-81
2022/06/11 06:29:57;;;;;;;;;;;21.20;41.20;;;;;;6193911;23;19924;-78
2022/06/11 06:32:24;;;;;;;;;;;21.30;41.70;;;;;;6188950;23;19924;-78
2022/06/11 06:34:51;;;;;;;;;;;21.40;40.40;;;;;;6189577;23;19920;-77
2022/06/11 06:37:18;;;;;;;;;;;21.50;40.60;;;;;;6186527;22;20238;-78
2022/06/11 06:39:44;;;;;;;;;;;21.50;40.70;;;;;;6186085;23;19920;-77
2022/06/11 06:42:11;;;;;;;;;;;21.60;40.80;;;;;;6185959;23;20345;-78
2022/06/11 06:44:38;;;;;;;;;;;21.70;41.00;;;;;;6159334;23;19920;-83
2022/06/11 06:47:05;;;;;;;;;;;21.70;40.20;;;;;;6159850;23;19921;-79
2022/06/11 06:49:32;;;;;;;;;;;21.80;40.50;;;;;;6185752;22;20174;-78
2022/06/11 06:51:58;;;;;;;;;;;21.90;40.00;;;;;;6160000;23;20428;-82
2022/06/11 06:54:25;;;;;;;;;;;21.90;40.50;;;;;;6159913;23;20391;-79
2022/06/11 06:56:52;;;;;;;;;;;22.00;39.60;;;;;;6186179;23;19920;-82
2022/06/11 06:59:18;;;;;;;;;;;22.20;40.60;;;;;;6160210;23;20420;-77
2022/06/11 07:01:45;;;;;;;;;;;22.30;41.30;;;;;;6160340;23;20299;-83
2022/06/11 07:04:13;;;;;;;;;;;22.40;40.10;;;;;;6173713;23;19920;-78
2022/06/11 07:06:50;;;;;;;;;;;22.50;39.30;;;;;;6192545;23;19931;-83
2022/06/11 07:09:17;;;;;;;;;;;22.60;38.70;;;;;;6190709;23;20478;-78
2022/06/11 07:11:44;;;;;;;;;;;22.70;38.80;;;;;;6190581;23;19927;-82
2022/06/11 07:14:11;;;;;;;;;;;22.70;39.80;;;;;;6214306;23;19923;-78
2022/06/11 07:16:41;;;;;;;;;;;22.90;38.10;;;;;;6189714;23;19951;-79
2022/06/11 07:19:15;;;;;;;;;;;23.00;40.70;;;;;;6188596;23;19920;-78
2022/06/11 07:21:44;;;;;;;;;;;23.20;39.30;;;;;;6214871;23;19973;-79
2022/06/11 07:24:18;;;;;;;;;;;23.30;37.10;;;;;;6189834;23;19924;-78
2022/06/11 07:26:51;;;;;;;;;;;23.50;37.60;;;;;;6190905;23;20280;-83
2022/06/11 07:29:29;;;;;;;;;;;23.70;37.30;;;;;;6189199;23;20407;-79
2022/06/11 07:32:01;;;;;;;;;;;23.90;38.10;;;;;;6215760;23;19974;-78
2022/06/11 07:34:28;;;;;;;;;;;24.00;37.00;;;;;;6189016;23;20337;-79
2022/06/11 07:36:56;;;;;;;;;;;24.20;36.70;;;;;;6188349;23;19970;-78
2022/06/11 07:39:23;;;;;;;;;;;24.40;36.40;;;;;;6188885;23;19920;-78
2022/06/11 07:41:49;;;;;;;;;;;24.50;36.00;;;;;;6188025;23;20340;-79
2022/06/11 07:44:16;;;;;;;;;;;24.60;35.40;;;;;;6186399;23;19974;-78
2022/06/11 07:46:43;;;;;;;;;;;24.80;34.60;;;;;;6163242;23;19919;-79
2022/06/11 07:49:10;;;;;;;;;;;24.90;34.20;;;;;;6215775;23;19924;-79
2022/06/11 07:51:37;;;;;;;;;;;25.10;34.00;;;;;;6190560;23;19920;-78
2022/06/11 07:54:04;;;;;;;;;;;25.20;33.50;;;;;;6190182;23;19927;-79
2022/06/11 07:56:31;;;;;;;;;;;25.20;33.10;;;;;;6189564;23;20252;-78
2022/06/11 07:58:58;;;;;;;;;;;25.30;33.30;;;;;;6190522;23;19919;-78
2022/06/11 08:01:24;;;;;;;;;;;25.50;33.50;;;;;;6194048;23;20395;-77
2022/06/11 08:03:51;;;;;;;;;;;25.60;33.50;;;;;;6194146;23;19995;-78
2022/06/11 08:06:18;;;;;;;;;;;25.70;33.60;;;;;;6192976;23;19923;-80
2022/06/11 08:08:46;;;;;;;;;;;25.80;32.70;;;;;;6191823;23;19924;-81
2022/06/11 08:11:13;;;;;;;;;;;25.80;33.20;;;;;;6189913;23;19923;-80
2022/06/11 08:13:39;;;;;;;;;;;25.90;33.70;;;;;;6189867;23;19967;-80
2022/06/11 08:16:06;;;;;;;;;;;26.00;34.10;;;;;;6189204;23;19924;-80
2022/06/11 08:18:33;;;;;;;;;;;26.10;34.80;;;;;;6195200;23;19903;-78
2022/06/11 08:21:00;;;;;;;;;;;26.20;33.90;;;;;;6194615;23;19924;-79
2022/06/11 08:23:27;;;;;;;;;;;26.40;34.50;;;;;;6191962;23;19920;-78
2022/06/11 08:25:54;;;;;;;;;;;26.50;34.60;;;;;;6190377;23;19978;-77
2022/06/11 08:28:22;;;;;;;;;;;26.60;34.20;;;;;;6189532;23;19974;-77
2022/06/11 08:30:49;;;;;;;;;;;26.70;32.60;;;;;;6191585;23;20161;-81
2022/06/11 08:33:17;;;;;;;;;;;26.80;33.00;;;;;;6189079;23;19931;-79
2022/06/11 08:35:43;;;;;;;;;;;26.90;33.50;;;;;;6188963;23;19920;-80
2022/06/11 08:38:11;;;;;;;;;;;26.90;33.20;;;;;;6196235;23;19970;-79
2022/06/11 08:40:45;;;;;;;;;;;27.00;32.90;;;;;;6190104;23;19920;-79
2022/06/11 08:43:15;;;;;;;;;;;27.10;33.50;;;;;;6195935;23;19923;-80
2022/06/11 08:45:50;;;;;;;;;;;27.20;33.30;;;;;;6193867;23;19986;-78
2022/06/11 08:48:21;;;;;;;;;;;27.30;33.50;;;;;;6191035;23;19920;-77
2022/06/11 08:50:54;;;;;;;;;;;27.20;32.30;;;;;;6190974;23;20341;-80
2022/06/11 08:53:24;;;;;;;;;;;27.20;33.70;;;;;;6195298;23;19920;-81
2022/06/11 08:55:51;;;;;;;;;;;27.30;35.30;;;;;;6193848;23;19924;-80
2022/06/11 08:58:23;;;;;;;;;;;27.50;34.40;;;;;;6194390;23;20257;-78
2022/06/11 09:01:10;;;;;;;;;;;27.60;35.10;;;;;;6191242;23;19947;-79
2022/06/11 09:03:56;;;;;;;;;;;27.70;34.40;;;;;;6189016;23;20352;-78
2022/06/11 09:06:35;;;;;;;;;;;27.90;35.00;;;;;;6187432;23;19930;-79
2022/06/11 09:09:06;;;;;;;;;;;27.90;34.30;;;;;;6189164;23;20019;-79
2022/06/11 09:11:36;;;;;;;;;;;27.90;33.60;;;;;;6190167;23;19943;-78
2022/06/11 09:14:05;;;;;;;;;;;27.90;32.10;;;;;;6187199;23;19921;-80
2022/06/11 09:16:51;;;;;;;;;;;28.00;33.30;;;;;;6188846;23;19979;-78
2022/06/11 09:19:24;;;;;;;;;;;28.10;33.00;;;;;;6190211;23;19920;-78
2022/06/11 09:22:03;;;;;;;;;;;28.20;33.40;;;;;;6189610;23;19925;-83
2022/06/11 09:24:37;;;;;;;;;;;28.10;34.00;;;;;;6188258;23;20326;-85
2022/06/11 09:27:24;;;;;;;;;;;28.20;34.50;;;;;;6186167;23;19924;-82
2022/06/11 09:30:05;;;;;;;;;;;28.20;33.60;;;;;;6165605;23;19932;-78
2022/06/11 09:32:48;;;;;;;;;;;28.30;34.80;;;;;;6186505;23;19921;-79
2022/06/11 09:35:15;;;;;;;;;;;28.50;33.20;;;;;;6187981;23;20312;-83
2022/06/11 09:37:45;;;;;;;;;;;28.60;32.50;;;;;;6191027;23;19920;-79
2022/06/11 09:40:27;;;;;;;;;;;28.60;31.80;;;;;;6185456;23;19920;-84
2022/06/11 09:42:54;;;;;;;;;;;28.70;31.20;;;;;;6186896;23;19920;-80
2022/06/11 09:45:28;;;;;;;;;;;28.90;31.70;;;;;;6189607;23;20300;-84
2022/06/11 09:48:15;;;;;;;;;;;28.80;30.80;;;;;;6189941;23;19931;-79
2022/06/11 09:50:56;;;;;;;;;;;28.80;33.50;;;;;;6187614;23;20260;-79
2022/06/11 09:53:43;;;;;;;;;;;28.90;32.30;;;;;;6191683;23;19920;-84
2022/06/11 09:56:10;;;;;;;;;;;28.90;32.70;;;;;;6185184;23;19924;-78
2022/06/11 09:58:44;;;;;;;;;;;29.00;32.70;;;;;;6162080;23;19944;-79
2022/06/11 10:01:15;;;;;;;;;;;29.10;32.10;;;;;;6125932;23;19920;-79
2022/06/11 10:04:02;;;;;;;;;;;29.20;30.70;;;;;;6125740;23;19921;-80
2022/06/11 10:06:47;;;;;;;;;;;29.10;30.60;;;;;;6128766;23;19925;-78
2022/06/11 10:09:34;;;;;;;;;;;29.10;31.70;;;;;;6129470;23;19924;-80
2022/06/11 10:12:18;;;;;;;;;;;29.30;32.20;;;;;;6134202;23;20421;-83
2022/06/11 10:14:45;;;;;;;;;;;29.50;32.30;;;;;;6127812;23;19981;-78
2022/06/11 10:17:30;;;;;;;;;;;29.70;31.30;;;;;;6131399;23;19921;-83
2022/06/11 10:20:00;;;;;;;;;;;29.70;31.30;;;;;;6126631;23;19924;-79
2022/06/11 10:22:32;;;;;;;;;;;29.70;31.80;;;;;;6129178;23;19921;-78
2022/06/11 10:25:02;;;;;;;;;;;29.80;32.70;;;;;;6130099;23;19945;-80
2022/06/11 10:27:35;;;;;;;;;;;29.90;33.70;;;;;;6127705;23;19921;-81
2022/06/11 10:30:11;;;;;;;;;;;30.00;32.40;;;;;;6125496;23;19932;-80
2022/06/11 10:32:46;;;;;;;;;;;30.00;31.30;;;;;;6133610;23;19928;-79
2022/06/11 10:35:16;;;;;;;;;;;30.00;30.90;;;;;;6126330;23;20342;-81
2022/06/11 10:37:57;;;;;;;;;;;30.10;31.00;;;;;;6125489;23;19925;-81
2022/06/11 10:40:37;;;;;;;;;;;30.10;29.70;;;;;;6127029;23;20409;-78
2022/06/11 10:43:22;;;;;;;;;;;30.10;31.00;;;;;;6131843;23;19976;-83
2022/06/11 10:45:49;;;;;;;;;;;30.20;31.30;;;;;;6134974;23;19972;-84
2022/06/11 10:48:18;;;;;;;;;;;30.40;31.40;;;;;;6128976;23;19944;-81
2022/06/11 10:50:45;;;;;;;;;;;30.60;30.70;;;;;;6125501;23;19925;-80
2022/06/11 10:53:17;;;;;;;;;;;30.60;29.80;;;;;;6129789;23;19972;-78
2022/06/11 10:55:51;;;;;;;;;;;30.70;30.00;;;;;;6130174;23;19925;-83
2022/06/11 10:58:36;;;;;;;;;;;30.60;30.80;;;;;;6134716;23;20401;-78
2022/06/11 11:01:10;;;;;;;;;;;30.70;31.60;;;;;;6134120;23;19925;-81
2022/06/11 11:03:37;;;;;;;;;;;30.70;30.20;;;;;;6139445;23;19921;-84
2022/06/11 11:06:05;;;;;;;;;;;30.80;28.60;;;;;;6126886;23;19924;-81
2022/06/11 11:08:33;;;;;;;;;;;30.80;28.80;;;;;;6128340;23;19920;-79
2022/06/11 11:11:00;;;;;;;;;;;30.90;29.70;;;;;;6209830;23;19920;-81
2022/06/11 11:13:31;;;;;;;;;;;31.00;30.00;;;;;;6195205;23;19919;-78
2022/06/11 11:15:59;;;;;;;;;;;31.00;29.20;;;;;;6191157;23;19919;-79
2022/06/11 11:18:31;;;;;;;;;;;31.00;28.90;;;;;;6193211;23;19924;-78
2022/06/11 11:20:58;;;;;;;;;;;30.90;28.80;;;;;;6193807;23;19954;-80
2022/06/11 11:23:33;;;;;;;;;;;31.00;29.70;;;;;;6194468;23;20284;-80
2022/06/11 11:26:06;;;;;;;;;;;31.00;29.00;;;;;;6194152;23;19920;-80
2022/06/11 11:28:42;;;;;;;;;;;31.20;27.90;;;;;;6223798;23;19920;-78
2022/06/11 11:31:17;;;;;;;;;;;31.20;28.10;;;;;;6197984;23;20241;-81
2022/06/11 11:33:58;;;;;;;;;;;31.30;27.90;;;;;;6189508;23;19927;-80
2022/06/11 11:36:27;;;;;;;;;;;31.30;27.50;;;;;;6221433;23;19928;-84
2022/06/11 11:38:59;;;;;;;;;;;31.30;27.70;;;;;;6221380;23;19982;-84
2022/06/11 11:41:32;;;;;;;;;;;31.30;28.90;;;;;;6194470;23;19943;-80
2022/06/11 11:43:58;;;;;;;;;;;31.40;28.90;;;;;;6191971;23;19970;-78
2022/06/11 11:46:31;;;;;;;;;;;31.60;27.90;;;;;;6222766;23;19966;-81
2022/06/11 11:48:58;;;;;;;;;;;31.80;28.10;;;;;;6190031;23;19942;-81
2022/06/11 11:51:29;;;;;;;;;;;31.80;27.20;;;;;;6192636;23;19927;-81
2022/06/11 11:54:02;;;;;;;;;;;31.70;27.40;;;;;;6189648;23;19923;-81
2022/06/11 11:56:31;;;;;;;;;;;31.70;27.90;;;;;;6194261;23;19920;-84
2022/06/11 11:59:09;;;;;;;;;;;31.70;27.00;;;;;;6192208;23;19920;-78
2022/06/11 12:01:36;;;;;;;;;;;31.80;27.30;;;;;;6193541;23;19924;-79
2022/06/11 12:04:11;;;;;;;;;;;32.00;28.30;;;;;;6189404;23;19924;-80
2022/06/11 12:06:43;;;;;;;;;;;32.10;27.40;;;;;;6194738;23;19999;-79
2022/06/11 12:09:25;;;;;;;;;;;32.00;27.80;;;;;;6216241;23;19919;-78
2022/06/11 12:12:03;;;;;;;;;;;31.90;26.30;;;;;;6189448;23;19924;-82
2022/06/11 12:14:37;;;;;;;;;;;31.80;27.30;;;;;;6191537;23;19924;-79
2022/06/11 12:17:16;;;;;;;;;;;31.90;27.30;;;;;;6192057;23;19974;-78
2022/06/11 12:19:44;;;;;;;;;;;32.00;26.60;;;;;;6217442;23;19951;-82
2022/06/11 12:22:22;;;;;;;;;;;32.30;26.40;;;;;;6218893;23;20237;-84
2022/06/11 12:24:49;;;;;;;;;;;32.50;26.90;;;;;;6193352;23;20252;-80
2022/06/11 12:27:27;;;;;;;;;;;32.50;26.30;;;;;;6195771;23;20355;-84
2022/06/11 12:29:56;;;;;;;;;;;32.50;27.10;;;;;;6193985;23;19943;-84
2022/06/11 12:32:23;;;;;;;;;;;32.50;26.90;;;;;;6190993;23;19957;-78
2022/06/11 12:34:51;;;;;;;;;;;32.60;25.90;;;;;;6194503;23;19923;-84
2022/06/11 12:37:23;;;;;;;;;;;32.60;26.70;;;;;;6190830;23;19920;-85
2022/06/11 12:40:06;;;;;;;;;;;32.70;27.20;;;;;;6192270;23;19920;-78
2022/06/11 12:42:40;;;;;;;;;;;32.70;25.30;;;;;;6197733;22;19924;-84
2022/06/11 12:45:11;;;;;;;;;;;32.60;25.90;;;;;;6161501;23;20027;-81
2022/06/11 12:47:56;;;;;;;;;;;32.60;25.70;;;;;;6161477;23;19983;-80
2022/06/11 12:50:50;;;;;;;;;;;32.70;25.70;;;;;;6166440;23;19924;-80
2022/06/11 12:53:28;;;;;;;;;;;33.10;26.80;;;;;;6165254;23;19975;-79
2022/06/11 12:56:16;;;;;;;;;;;33.20;25.80;;;;;;6165313;23;20412;-79
2022/06/11 12:58:46;;;;;;;;;;;33.20;25.70;;;;;;6161631;23;19920;-79
2022/06/11 13:01:23;;;;;;;;;;;33.30;25.70;;;;;;6161057;23;20296;-83
2022/06/11 13:03:56;;;;;;;;;;;33.30;25.70;;;;;;6161799;23;19924;-81
2022/06/11 13:06:23;;;;;;;;;;;33.50;25.90;;;;;;6162070;23;20404;-81
2022/06/11 13:08:59;;;;;;;;;;;33.60;26.10;;;;;;6161636;23;20234;-85
2022/06/11 13:11:44;;;;;;;;;;;33.80;25.50;;;;;;6187310;23;20309;-80
2022/06/11 13:14:14;;;;;;;;;;;33.90;24.70;;;;;;6161230;23;19924;-78
2022/06/11 13:16:53;;;;;;;;;;;34.10;25.10;;;;;;6160795;23;19987;-81
2022/06/11 13:19:23;;;;;;;;;;;34.10;24.50;;;;;;6161366;23;19924;-79
2022/06/11 13:22:04;;;;;;;;;;;34.20;24.20;;;;;;6161592;23;19924;-80
2022/06/11 13:24:40;;;;;;;;;;;34.40;24.10;;;;;;6161274;23;19924;-84
2022/06/11 13:27:22;;;;;;;;;;;34.60;24.40;;;;;;6160483;23;19975;-79
2022/06/11 13:29:55;;;;;;;;;;;34.70;24.10;;;;;;6161289;23;20086;-84
2022/06/11 13:32:40;;;;;;;;;;;34.70;24.10;;;;;;6160678;23;20333;-81
2022/06/11 13:35:25;;;;;;;;;;;34.50;24.00;;;;;;6160710;23;19920;-80
2022/06/11 13:38:11;;;;;;;;;;;34.50;23.80;;;;;;6187299;23;19967;-84
2022/06/11 13:41:17;;;;;;;;;;;34.50;24.30;;;;;;6160753;23;20007;-78
2022/06/11 13:44:03;;;;;;;;;;;34.40;24.90;;;;;;6014939;23;19926;-79
2022/06/11 13:46:50;;;;;;;;;;;34.40;24.80;;;;;;6038670;23;20240;-78
2022/06/11 13:49:26;;;;;;;;;;;34.40;24.80;;;;;;6148954;23;19969;-81
2022/06/11 13:51:59;;;;;;;;;;;34.50;25.10;;;;;;6160803;23;19920;-82
2022/06/11 13:57:22;;;;;;;;;;;34.60;25.40;;;;;;6187391;23;20305;-80
2022/06/11 14:00:00;;;;;;;;;;;34.80;24.50;;;;;;6161030;23;19921;-81
2022/06/11 14:02:45;;;;;;;;;;;34.50;23.50;;;;;;6160920;23;19971;-80
2022/06/11 14:05:15;;;;;;;;;;;34.50;24.60;;;;;;6161331;23;20008;-81
2022/06/11 14:07:43;;;;;;;;;;;34.70;24.90;;;;;;6159654;23;19976;-81
2022/06/11 14:10:32;;;;;;;;;;;34.80;24.30;;;;;;6164447;22;20355;-78
2022/06/11 14:13:01;;;;;;;;;;;35.00;24.90;;;;;;6160647;23;19921;-81
2022/06/11 14:15:30;;;;;;;;;;;35.20;24.10;;;;;;6160422;23;19921;-80
2022/06/11 14:17:57;;;;;;;;;;;35.20;23.70;;;;;;6160534;23;19924;-80
2022/06/11 14:20:36;;;;;;;;;;;35.30;24.30;;;;;;6160782;23;19952;-85
2022/06/11 14:23:26;;;;;;;;;;;35.30;25.10;;;;;;6186314;23;19920;-84
2022/06/11 14:25:53;;;;;;;;;;;35.50;24.50;;;;;;6142627;23;19920;-85
2022/06/11 14:28:22;;;;;;;;;;;35.70;24.50;;;;;;6160591;22;19932;-80
2022/06/11 14:30:48;;;;;;;;;;;35.70;24.50;;;;;;6160487;23;19967;-80
2022/06/11 14:33:24;;;;;;;;;;;35.70;24.30;;;;;;6160994;23;19979;-85
2022/06/11 14:35:54;;;;;;;;;;;35.40;23.80;;;;;;6161876;23;19921;-86
2022/06/11 14:38:20;;;;;;;;;;;35.40;25.10;;;;;;6161356;23;19924;-81
2022/06/11 14:40:52;;;;;;;;;;;35.20;23.60;;;;;;6160610;23;19920;-83
2022/06/11 14:43:20;;;;;;;;;;;34.80;24.50;;;;;;6160797;23;19924;-78